Time;durP1;ratioP1;P1;durP2;ratioP2;P2;SDS_P1;SDS_P2;PMS_P1;PMS_P2;Temp;Humidity;BMP_temperature;BMP_pressure;BME280_temperature;BME280_humidity;BME280_pressure;Samples;Min_cycle;Max_cycle;Signal;HPM_P1;HPM_P2
2023/11/03 00:01:00;;;;;;;1.58;1.58;;;8.60;99.90;;;;;;4998537;28;20196;-76
2023/11/03 00:03:27;;;;;;;1.42;1.42;;;8.60;99.90;;;;;;5015770;28;20308;-76
2023/11/03 00:05:55;;;;;;;1.80;1.70;;;8.60;99.90;;;;;;5001111;28;20228;-78
2023/11/03 00:08:22;;;;;;;1.80;1.70;;;8.50;99.90;;;;;;4998576;28;20666;-76
2023/11/03 00:10:49;;;;;;;1.65;1.65;;;8.50;99.90;;;;;;4996378;28;20255;-75
2023/11/03 00:13:16;;;;;;;1.80;1.70;;;8.50;99.90;;;;;;4998129;28;20310;-76
2023/11/03 00:15:44;;;;;;;1.50;1.40;;;8.50;99.90;;;;;;4994200;28;20311;-76
2023/11/03 00:18:12;;;;;;;1.70;1.70;;;8.50;99.90;;;;;;4993972;28;20240;-76
2023/11/03 00:20:40;;;;;;;1.60;1.60;;;8.50;99.90;;;;;;4998471;28;20922;-74
2023/11/03 00:23:07;;;;;;;1.65;1.58;;;8.50;99.90;;;;;;4998662;28;20311;-77
2023/11/03 00:25:34;;;;;;;1.73;1.63;;;8.50;99.90;;;;;;4996168;28;20318;-77
2023/11/03 00:28:02;;;;;;;2.22;2.13;;;8.40;99.90;;;;;;4996448;28;20201;-74
2023/11/03 00:30:30;;;;;;;1.70;1.60;;;8.40;99.90;;;;;;5002027;28;20717;-78
2023/11/03 00:32:57;;;;;;;1.73;1.63;;;8.30;99.90;;;;;;5003571;28;20228;-81
2023/11/03 00:35:25;;;;;;;1.45;1.45;;;8.40;99.90;;;;;;5002494;28;20211;-79
2023/11/03 00:37:56;;;;;;;2.00;1.90;;;8.40;99.90;;;;;;5003650;28;20737;-74
2023/11/03 00:40:23;;;;;;;1.70;1.60;;;8.40;99.90;;;;;;4995555;28;20197;-75
2023/11/03 00:42:50;;;;;;;1.80;1.70;;;8.30;99.90;;;;;;5002356;28;20232;-76
2023/11/03 00:45:17;;;;;;;1.35;1.35;;;8.30;99.90;;;;;;5002389;28;20204;-76
2023/11/03 00:47:44;;;;;;;1.50;1.50;;;8.30;99.90;;;;;;5003505;28;20200;-75
2023/11/03 00:50:12;;;;;;;1.75;1.67;;;8.40;99.90;;;;;;4999747;28;20197;-75
2023/11/03 00:52:40;;;;;;;1.80;1.70;;;8.40;99.90;;;;;;5001889;28;20209;-78
2023/11/03 00:55:08;;;;;;;1.55;1.48;;;8.50;99.90;;;;;;4999917;28;20232;-75
2023/11/03 00:57:37;;;;;;;1.80;1.70;;;8.40;99.90;;;;;;4999024;28;20926;-76
2023/11/03 01:00:06;;;;;;;1.60;1.50;;;8.50;99.90;;;;;;5001086;28;20207;-76
2023/11/03 01:02:33;;;;;;;1.38;1.38;;;8.50;99.90;;;;;;4998539;28;20209;-77
2023/11/03 01:05:00;;;;;;;1.55;1.55;;;8.50;99.90;;;;;;5000648;28;20682;-77
2023/11/03 01:07:28;;;;;;;1.80;1.70;;;8.60;99.90;;;;;;5002040;28;20223;-75
2023/11/03 01:09:56;;;;;;;1.27;1.27;;;8.60;99.90;;;;;;4996910;28;20902;-76
2023/11/03 01:12:25;;;;;;;3.28;1.83;;;8.60;99.90;;;;;;5004362;28;20209;-76
2023/11/03 01:14:55;;;;;;;1.98;1.88;;;8.50;99.90;;;;;;5004615;28;20795;-77
2023/11/03 01:17:24;;;;;;;2.03;1.92;;;8.50;99.90;;;;;;4998455;28;20207;-77
2023/11/03 01:19:51;;;;;;;1.73;1.63;;;8.50;99.90;;;;;;5003471;28;20295;-77
2023/11/03 01:22:19;;;;;;;1.85;1.75;;;8.60;99.90;;;;;;5001816;28;21342;-76
2023/11/03 01:24:46;;;;;;;2.20;2.10;;;8.50;99.90;;;;;;5002018;28;20220;-75
2023/11/03 01:27:15;;;;;;;2.10;2.00;;;8.50;99.90;;;;;;5004116;28;20633;-76
2023/11/03 01:29:42;;;;;;;1.88;1.77;;;8.50;99.90;;;;;;5004168;28;20197;-77
2023/11/03 01:32:11;;;;;;;1.50;1.50;;;8.40;99.90;;;;;;5003515;28;20310;-75
2023/11/03 01:34:39;;;;;;;1.73;1.70;;;8.50;99.90;;;;;;5004658;28;20230;-76
2023/11/03 01:37:08;;;;;;;1.80;1.70;;;8.50;99.90;;;;;;5003528;28;20686;-77
2023/11/03 01:39:35;;;;;;;1.70;1.60;;;8.50;99.90;;;;;;4996962;28;20200;-75
2023/11/03 01:42:02;;;;;;;1.63;1.52;;;8.50;99.90;;;;;;5002876;28;20239;-77
2023/11/03 01:44:32;;;;;;;1.52;1.52;;;8.50;99.90;;;;;;5005883;28;20258;-76
2023/11/03 01:46:59;;;;;;;1.52;1.42;;;8.50;99.90;;;;;;5005608;28;20220;-76
2023/11/03 01:49:26;;;;;;;1.85;1.75;;;8.60;99.90;;;;;;5005035;28;20666;-76
2023/11/03 01:51:54;;;;;;;1.52;1.52;;;8.60;99.90;;;;;;5004589;28;20662;-76
2023/11/03 01:54:21;;;;;;;1.40;1.40;;;8.60;99.90;;;;;;5000685;28;20642;-77
2023/11/03 01:56:48;;;;;;;1.83;1.73;;;8.70;99.90;;;;;;5002611;28;20222;-76
2023/11/03 01:59:16;;;;;;;1.50;1.40;;;8.60;99.90;;;;;;5005217;28;20639;-76
2023/11/03 02:01:46;;;;;;;1.48;1.48;;;8.60;99.90;;;;;;4989686;28;20634;-76
2023/11/03 02:04:13;;;;;;;1.40;1.40;;;8.70;99.90;;;;;;5000405;28;20230;-76
2023/11/03 02:06:40;;;;;;;1.60;1.60;;;8.70;99.90;;;;;;5003032;28;20224;-78
2023/11/03 02:09:08;;;;;;;1.58;1.58;;;8.70;99.90;;;;;;5003952;28;20212;-76
2023/11/03 02:11:43;;;;;;;1.58;1.48;;;8.80;99.90;;;;;;5002434;28;20247;-75
2023/11/03 02:14:10;;;;;;;1.65;1.55;;;8.80;99.90;;;;;;5002601;28;20307;-76
2023/11/03 02:16:37;;;;;;;1.45;1.45;;;8.80;99.90;;;;;;5005050;28;20749;-76
2023/11/03 02:19:10;;;;;;;1.42;1.40;;;8.80;99.90;;;;;;5003690;28;20552;-76
2023/11/03 02:21:37;;;;;;;1.58;1.52;;;8.80;99.90;;;;;;5003789;28;21342;-77
2023/11/03 02:24:08;;;;;;;1.40;1.40;;;8.80;99.90;;;;;;5006421;28;20278;-76
2023/11/03 02:26:35;;;;;;;1.40;1.30;;;8.80;99.90;;;;;;5006302;28;20244;-77
2023/11/03 02:29:03;;;;;;;1.50;1.50;;;8.80;99.90;;;;;;5002855;28;20638;-75
2023/11/03 02:31:31;;;;;;;1.25;1.25;;;8.80;99.90;;;;;;5004041;28;20199;-77
2023/11/03 02:33:58;;;;;;;1.33;1.33;;;8.80;99.90;;;;;;5000774;28;20386;-76
2023/11/03 02:36:25;;;;;;;1.90;1.80;;;8.80;99.90;;;;;;5003634;28;21912;-76
2023/11/03 02:38:54;;;;;;;1.80;1.70;;;8.80;99.90;;;;;;5004917;28;20761;-76
2023/11/03 02:41:23;;;;;;;1.70;1.63;;;8.70;99.90;;;;;;5001263;28;20204;-78
2023/11/03 02:43:50;;;;;;;1.65;1.60;;;8.80;99.90;;;;;;5005317;28;20573;-76
2023/11/03 02:46:17;;;;;;;1.95;1.85;;;8.70;99.90;;;;;;5001896;28;20275;-78
2023/11/03 02:48:44;;;;;;;1.98;1.88;;;8.70;99.90;;;;;;4986975;28;20288;-76
2023/11/03 02:51:11;;;;;;;1.90;1.80;;;8.70;99.90;;;;;;5000727;28;20292;-76
2023/11/03 02:53:38;;;;;;;1.90;1.80;;;8.70;99.90;;;;;;5002250;28;20274;-77
2023/11/03 02:56:06;;;;;;;1.98;1.88;;;8.70;99.90;;;;;;5003500;28;20204;-79
2023/11/03 02:58:38;;;;;;;1.55;1.45;;;8.70;99.90;;;;;;5003519;28;20196;-76
2023/11/03 03:01:08;;;;;;;1.95;1.85;;;8.70;99.90;;;;;;5002739;28;20291;-76
2023/11/03 03:03:35;;;;;;;2.33;1.90;;;8.70;99.90;;;;;;5001291;28;20277;-76
2023/11/03 03:06:02;;;;;;;1.70;1.63;;;8.70;99.90;;;;;;5002339;28;20278;-76
2023/11/03 03:08:29;;;;;;;1.60;1.55;;;8.80;99.90;;;;;;5002620;28;21265;-75
2023/11/03 03:10:56;;;;;;;1.48;1.40;;;8.80;99.90;;;;;;5001606;28;20204;-77
2023/11/03 03:13:24;;;;;;;1.30;1.30;;;8.80;99.90;;;;;;5000733;28;20227;-77
2023/11/03 03:15:53;;;;;;;40.10;3.78;;;8.80;99.90;;;;;;4987475;28;20227;-75
2023/11/03 03:18:20;;;;;;;4.07;2.30;;;8.80;99.90;;;;;;5002365;28;20263;-76
2023/11/03 03:20:47;;;;;;;3.75;2.38;;;8.80;99.90;;;;;;5005378;28;20239;-76
2023/11/03 03:23:14;;;;;;;2.50;1.75;;;8.70;99.90;;;;;;5001537;28;20267;-76
2023/11/03 03:25:41;;;;;;;1.52;1.52;;;8.60;99.90;;;;;;5008246;28;20894;-76
2023/11/03 03:28:08;;;;;;;1.98;1.88;;;8.60;99.90;;;;;;5005860;28;20220;-77
2023/11/03 03:30:35;;;;;;;54.33;4.40;;;8.60;99.90;;;;;;5002139;28;20207;-76
2023/11/03 03:33:04;;;;;;;25.85;2.65;;;8.60;99.90;;;;;;5002693;28;20307;-75
2023/11/03 03:35:33;;;;;;;2.20;2.10;;;8.60;99.90;;;;;;5000585;28;20213;-76
2023/11/03 03:38:00;;;;;;;2.42;2.33;;;8.50;99.90;;;;;;5001380;28;20258;-76
2023/11/03 03:40:27;;;;;;;2.53;2.42;;;8.50;99.90;;;;;;5000725;28;20676;-75
2023/11/03 03:42:56;;;;;;;2.80;2.60;;;8.50;99.90;;;;;;4987511;28;20232;-75
2023/11/03 03:45:24;;;;;;;2.50;2.40;;;8.50;99.90;;;;;;4999753;28;20258;-76
2023/11/03 03:47:51;;;;;;;2.33;2.22;;;8.50;99.90;;;;;;4982680;28;20296;-76
2023/11/03 03:50:20;;;;;;;2.53;2.42;;;8.50;99.90;;;;;;4999339;28;20200;-75
2023/11/03 03:52:47;;;;;;;2.08;1.98;;;8.50;99.90;;;;;;5000003;28;20212;-76
2023/11/03 03:55:15;;;;;;;1.70;1.70;;;8.50;99.90;;;;;;5000065;28;20261;-77
2023/11/03 03:57:42;;;;;;;1.30;1.30;;;8.50;99.90;;;;;;4997349;28;20204;-76
2023/11/03 04:00:09;;;;;;;1.35;1.35;;;8.60;99.90;;;;;;5002205;28;20212;-77
2023/11/03 04:02:37;;;;;;;1.60;1.60;;;8.60;99.90;;;;;;4999071;28;20263;-76
2023/11/03 04:05:04;;;;;;;62.08;4.60;;;8.60;99.90;;;;;;5000047;28;20254;-76
2023/11/03 04:07:33;;;;;;;51.60;9.20;;;8.60;99.90;;;;;;5007490;28;20224;-75
2023/11/03 04:10:00;;;;;;;18.02;3.55;;;8.50;99.90;;;;;;5004244;28;20222;-78
2023/11/03 04:12:29;;;;;;;72.35;5.03;;;8.40;99.90;;;;;;5003127;28;20491;-80
2023/11/03 04:14:56;;;;;;;1.92;1.83;;;8.40;99.90;;;;;;5007614;28;20262;-79
2023/11/03 04:17:23;;;;;;;119.20;6.68;;;8.30;99.90;;;;;;5004958;28;20204;-77
2023/11/03 04:19:50;;;;;;;1.95;1.85;;;8.30;99.90;;;;;;5006281;28;20255;-78
2023/11/03 04:22:17;;;;;;;1.80;1.70;;;8.20;99.90;;;;;;5003655;28;20226;-83
2023/11/03 04:24:46;;;;;;;1.85;1.80;;;8.30;99.90;;;;;;5006176;28;20236;-80
2023/11/03 04:27:13;;;;;;;1.80;1.70;;;8.30;99.90;;;;;;5001698;28;20251;-78
2023/11/03 04:29:41;;;;;;;1.65;1.65;;;8.30;99.90;;;;;;5003011;28;20201;-78
2023/11/03 04:32:08;;;;;;;1.80;1.70;;;8.40;99.90;;;;;;5003978;28;21061;-76
2023/11/03 04:34:35;;;;;;;1.40;1.40;;;8.40;99.90;;;;;;5004143;28;20223;-76
2023/11/03 04:37:04;;;;;;;4.88;1.90;;;8.40;99.90;;;;;;5002593;28;20189;-75
2023/11/03 04:39:31;;;;;;;84.40;5.18;;;8.50;99.90;;;;;;4999928;28;20276;-76
2023/11/03 04:42:00;;;;;;;76.55;5.57;;;8.40;99.90;;;;;;4994202;28;20200;-76
2023/11/03 04:44:27;;;;;;;139.20;7.97;;;8.40;99.90;;;;;;4996953;28;20649;-78
2023/11/03 04:46:54;;;;;;;94.40;7.50;;;8.30;99.90;;;;;;4998844;28;20989;-81
2023/11/03 04:49:21;;;;;;;76.55;7.15;;;8.20;99.90;;;;;;4995492;28;20262;-80
2023/11/03 04:51:49;;;;;;;235.32;11.65;;;8.20;99.90;;;;;;4995913;28;20357;-81
2023/11/03 04:54:16;;;;;;;49.15;8.75;;;8.10;99.90;;;;;;4992266;28;20228;-76
2023/11/03 04:56:44;;;;;;;309.27;12.70;;;8.10;99.90;;;;;;4996821;28;20239;-81
2023/11/03 04:59:12;;;;;;;45.40;4.55;;;8.10;99.90;;;;;;4994580;28;20303;-77
2023/11/03 05:01:40;;;;;;;1.92;1.83;;;8.10;99.90;;;;;;4994666;28;20744;-76
2023/11/03 05:04:07;;;;;;;1.50;1.50;;;8.10;99.90;;;;;;4996897;28;20227;-80
2023/11/03 05:06:35;;;;;;;2.10;2.00;;;8.10;99.90;;;;;;4994797;28;20872;-75
2023/11/03 05:09:02;;;;;;;2.00;1.90;;;8.10;99.90;;;;;;4994669;28;20786;-77
2023/11/03 05:11:31;;;;;;;2.00;1.90;;;8.10;99.90;;;;;;4995472;28;20204;-78
2023/11/03 05:14:00;;;;;;;1.95;1.85;;;8.10;99.90;;;;;;4995022;28;20221;-77
2023/11/03 05:16:29;;;;;;;2.00;1.90;;;8.20;99.90;;;;;;4994076;28;20296;-76
2023/11/03 05:18:56;;;;;;;1.65;1.58;;;8.20;99.90;;;;;;4996049;28;20200;-80
2023/11/03 05:21:24;;;;;;;1.80;1.70;;;8.20;99.90;;;;;;4996759;28;20200;-77
2023/11/03 05:23:51;;;;;;;2.08;1.98;;;8.20;99.90;;;;;;4995178;28;20227;-77
2023/11/03 05:26:19;;;;;;;3.47;3.17;;;8.20;99.90;;;;;;4999775;28;20209;-80
2023/11/03 05:28:47;;;;;;;4.22;3.83;;;8.20;99.90;;;;;;4995504;28;20640;-79
2023/11/03 05:31:14;;;;;;;2.50;2.35;;;8.20;99.90;;;;;;4995550;28;20279;-77
2023/11/03 05:33:43;;;;;;;2.00;1.90;;;8.20;99.90;;;;;;4998383;28;20315;-77
2023/11/03 05:36:11;;;;;;;2.10;2.00;;;8.20;99.90;;;;;;4997244;28;20244;-77
2023/11/03 05:38:38;;;;;;;49.47;5.30;;;8.20;99.90;;;;;;4996987;28;20211;-78
2023/11/03 05:41:05;;;;;;;2.92;2.72;;;8.20;99.90;;;;;;4996867;28;20307;-79
2023/11/03 05:43:33;;;;;;;289.13;12.35;;;8.10;99.90;;;;;;4994606;28;20710;-78
2023/11/03 05:46:01;;;;;;;377.88;17.20;;;8.10;99.90;;;;;;4995222;28;20212;-77
2023/11/03 05:48:28;;;;;;;661.40;26.17;;;8.10;99.90;;;;;;4996634;28;20288;-76
2023/11/03 05:50:57;;;;;;;375.48;17.35;;;8.10;99.90;;;;;;4995673;28;20260;-75
2023/11/03 05:53:24;;;;;;;522.45;25.88;;;8.00;99.90;;;;;;4996114;28;20813;-76
2023/11/03 05:55:51;;;;;;;96.15;7.28;;;8.00;99.90;;;;;;4995894;28;20203;-76
2023/11/03 05:58:18;;;;;;;73.30;5.68;;;7.90;99.90;;;;;;4997192;28;20212;-77
2023/11/03 06:00:45;;;;;;;2.90;2.70;;;7.90;99.90;;;;;;4999874;28;20249;-77
2023/11/03 06:03:13;;;;;;;3.75;3.42;;;7.90;99.90;;;;;;4996964;28;20224;-75
2023/11/03 06:05:40;;;;;;;2.88;2.67;;;7.90;99.90;;;;;;5000288;28;20206;-75
2023/11/03 06:08:09;;;;;;;20.80;2.97;;;7.90;99.90;;;;;;5000063;28;20326;-74
2023/11/03 06:10:36;;;;;;;2.53;2.38;;;7.90;99.90;;;;;;4999632;28;20640;-76
2023/11/03 06:13:05;;;;;;;16.85;2.92;;;7.90;99.90;;;;;;4999036;28;20279;-74
2023/11/03 06:15:32;;;;;;;150.63;9.13;;;7.90;99.90;;;;;;5000045;28;20586;-76
2023/11/03 06:17:59;;;;;;;80.80;6.50;;;7.90;99.90;;;;;;4998571;28;20205;-75
2023/11/03 06:20:26;;;;;;;188.90;12.43;;;7.90;99.90;;;;;;5003095;28;20271;-85
2023/11/03 06:22:53;;;;;;;33.53;4.13;;;7.90;99.90;;;;;;4999594;28;20232;-77
2023/11/03 06:25:22;;;;;;;350.15;18.95;;;7.90;99.90;;;;;;4997357;28;20830;-77
2023/11/03 06:27:49;;;;;;;76.00;6.78;;;7.90;99.90;;;;;;4995041;28;20990;-76
2023/11/03 06:30:16;;;;;;;37.72;4.32;;;7.90;99.90;;;;;;4999497;28;20294;-77
2023/11/03 06:32:44;;;;;;;11.05;2.50;;;7.90;99.90;;;;;;4997656;28;20253;-77
2023/11/03 06:35:11;;;;;;;20.42;2.90;;;7.90;99.90;;;;;;4998310;28;20266;-76
2023/11/03 06:37:38;;;;;;;2.13;2.03;;;7.90;99.90;;;;;;4997245;28;20306;-78
2023/11/03 06:40:10;;;;;;;2.35;2.25;;;7.90;99.90;;;;;;4985984;28;20623;-77
2023/11/03 06:42:39;;;;;;;2.50;2.40;;;7.90;99.90;;;;;;4993411;28;20667;-76
2023/11/03 06:45:07;;;;;;;1.75;1.65;;;7.80;99.90;;;;;;4999925;28;20290;-76
2023/11/03 06:47:34;;;;;;;2.13;1.92;;;7.80;99.90;;;;;;4997560;28;20228;-75
2023/11/03 06:50:03;;;;;;;2.35;2.25;;;7.80;99.90;;;;;;4996346;28;20258;-76
2023/11/03 06:52:31;;;;;;;2.00;1.90;;;7.80;99.90;;;;;;4993730;28;20212;-75
2023/11/03 06:54:58;;;;;;;1.80;1.70;;;7.80;99.90;;;;;;4996499;28;20208;-76
2023/11/03 06:57:25;;;;;;;1.65;1.63;;;7.70;99.90;;;;;;4992570;28;20284;-75
2023/11/03 06:59:54;;;;;;;1.60;1.60;;;7.70;99.90;;;;;;4992321;28;20205;-74
2023/11/03 07:02:21;;;;;;;1.75;1.65;;;7.80;99.90;;;;;;4995834;28;20259;-81
2023/11/03 07:04:48;;;;;;;1.63;1.60;;;7.80;99.90;;;;;;4994648;28;20216;-74
2023/11/03 07:07:15;;;;;;;1.63;1.52;;;7.80;99.90;;;;;;4995948;28;20749;-78
2023/11/03 07:09:42;;;;;;;1.73;1.63;;;7.80;99.90;;;;;;4992302;28;20223;-77
2023/11/03 07:12:09;;;;;;;2.00;1.90;;;7.80;99.90;;;;;;4990819;28;20258;-75
2023/11/03 07:14:36;;;;;;;1.98;1.88;;;7.80;99.90;;;;;;4993154;28;20337;-75
2023/11/03 07:17:05;;;;;;;2.17;2.00;;;7.80;99.90;;;;;;4992057;28;20251;-76
2023/11/03 07:19:32;;;;;;;1.70;1.65;;;7.70;99.90;;;;;;4992806;28;20565;-77
2023/11/03 07:21:59;;;;;;;2.25;1.80;;;7.60;99.90;;;;;;4992738;28;20212;-76
2023/11/03 07:24:26;;;;;;;1.70;1.70;;;7.50;99.90;;;;;;4993502;28;20278;-76
2023/11/03 07:26:53;;;;;;;1.60;1.60;;;7.50;99.90;;;;;;4990671;28;20244;-78
2023/11/03 07:29:20;;;;;;;1.90;1.80;;;7.40;99.90;;;;;;4990454;28;20220;-76
2023/11/03 07:31:48;;;;;;;2.35;1.50;;;7.40;99.90;;;;;;4989600;28;20292;-76
2023/11/03 07:34:18;;;;;;;1.90;1.80;;;7.40;99.90;;;;;;4992210;28;20237;-77
2023/11/03 07:36:45;;;;;;;2.00;1.90;;;7.30;99.90;;;;;;4990761;28;20197;-75
2023/11/03 07:39:13;;;;;;;4.93;1.95;;;7.30;99.90;;;;;;4987755;28;20250;-76
2023/11/03 07:41:40;;;;;;;1.33;1.30;;;7.30;99.90;;;;;;4990847;28;20203;-75
2023/11/03 07:44:07;;;;;;;1.88;1.77;;;7.30;99.90;;;;;;4990130;28;20232;-76
2023/11/03 07:46:34;;;;;;;1.90;1.80;;;7.30;99.90;;;;;;4988705;28;20232;-76
2023/11/03 07:49:01;;;;;;;1.92;1.83;;;7.30;99.90;;;;;;4992599;28;20220;-75
2023/11/03 07:51:30;;;;;;;1.40;1.40;;;7.20;99.90;;;;;;4993730;28;20200;-77
2023/11/03 07:53:58;;;;;;;1.75;1.70;;;7.20;99.90;;;;;;4989895;28;20620;-75
2023/11/03 07:56:25;;;;;;;1.85;1.80;;;7.20;99.90;;;;;;4988881;28;20214;-75
2023/11/03 07:58:52;;;;;;;1.60;1.52;;;7.10;99.90;;;;;;4988068;28;20264;-75
2023/11/03 08:01:19;;;;;;;1.42;1.42;;;7.10;99.90;;;;;;4964419;28;20208;-76
2023/11/03 08:03:47;;;;;;;1.35;1.35;;;7.10;99.90;;;;;;4991006;28;20827;-75
2023/11/03 08:06:14;;;;;;;1.45;1.45;;;7.20;99.90;;;;;;4990809;28;20204;-75
2023/11/03 08:08:43;;;;;;;1.63;1.63;;;7.30;99.90;;;;;;4992404;28;20225;-76
2023/11/03 08:11:10;;;;;;;1.52;1.52;;;7.40;99.90;;;;;;4993843;28;20214;-76
2023/11/03 08:13:37;;;;;;;2.03;1.92;;;7.40;99.90;;;;;;4993784;28;21624;-79
2023/11/03 08:16:08;;;;;;;1.65;1.65;;;7.40;99.90;;;;;;4994014;28;20768;-76
2023/11/03 08:18:35;;;;;;;1.67;1.67;;;7.40;99.90;;;;;;4997161;28;20934;-76
2023/11/03 08:21:02;;;;;;;1.90;1.80;;;7.40;99.90;;;;;;4992590;28;20208;-79
2023/11/03 08:23:31;;;;;;;2.00;1.90;;;7.40;99.90;;;;;;4995407;28;20223;-78
2023/11/03 08:26:00;;;;;;;2.13;2.03;;;7.40;99.90;;;;;;4996941;28;20236;-76
2023/11/03 08:28:28;;;;;;;1.98;1.88;;;7.30;99.90;;;;;;4995401;28;20876;-76
2023/11/03 08:30:55;;;;;;;2.25;2.15;;;7.30;99.90;;;;;;4995727;28;20209;-76
2023/11/03 08:33:22;;;;;;;1.75;1.75;;;7.30;99.90;;;;;;4996600;28;20228;-76
2023/11/03 08:35:50;;;;;;;1.88;1.77;;;7.40;99.90;;;;;;4995996;28;20204;-76
2023/11/03 08:38:17;;;;;;;1.33;1.33;;;7.40;99.90;;;;;;4992545;28;20236;-77
2023/11/03 08:40:45;;;;;;;1.60;1.60;;;7.40;99.90;;;;;;4990593;28;20722;-78
2023/11/03 08:43:14;;;;;;;1.60;1.60;;;7.40;99.90;;;;;;5007908;28;20327;-75
2023/11/03 08:45:41;;;;;;;1.42;1.42;;;7.30;99.90;;;;;;4997273;28;20659;-77
2023/11/03 08:48:09;;;;;;;1.58;1.58;;;7.20;99.90;;;;;;5009853;28;20227;-76
2023/11/03 08:50:36;;;;;;;1.60;1.60;;;7.10;99.90;;;;;;4997622;28;20288;-75
2023/11/03 08:53:04;;;;;;;1.60;1.60;;;7.00;99.90;;;;;;4995435;28;20315;-75
2023/11/03 08:55:31;;;;;;;1.70;1.70;;;6.90;99.90;;;;;;4994290;28;20213;-75
2023/11/03 08:57:59;;;;;;;1.30;1.30;;;6.90;99.90;;;;;;4994012;28;20256;-79
2023/11/03 09:00:28;;;;;;;1.58;1.58;;;6.80;99.90;;;;;;4993344;28;20216;-75
2023/11/03 09:02:55;;;;;;;1.60;1.60;;;6.80;99.90;;;;;;4993759;28;20348;-76
2023/11/03 09:05:23;;;;;;;1.60;1.60;;;6.90;99.90;;;;;;4976866;28;20240;-73
2023/11/03 09:07:50;;;;;;;1.95;1.85;;;6.90;99.90;;;;;;5000649;28;20208;-75
2023/11/03 09:10:17;;;;;;;1.65;1.60;;;6.90;99.90;;;;;;4998185;28;20224;-75
2023/11/03 09:12:44;;;;;;;1.75;1.70;;;6.90;99.90;;;;;;5000256;28;20297;-75
2023/11/03 09:15:12;;;;;;;1.70;1.60;;;6.90;99.90;;;;;;5002952;28;20200;-75
2023/11/03 09:17:44;;;;;;;1.67;1.67;;;6.90;99.90;;;;;;5003230;28;20611;-76
2023/11/03 09:20:14;;;;;;;1.73;1.73;;;6.90;99.90;;;;;;5002066;28;20201;-74
2023/11/03 09:22:43;;;;;;;1.55;1.55;;;7.00;99.90;;;;;;4997241;28;20208;-78
2023/11/03 09:25:11;;;;;;;2.00;1.90;;;7.00;99.90;;;;;;4998521;28;20236;-77
2023/11/03 09:27:39;;;;;;;1.88;1.77;;;7.00;99.90;;;;;;4997610;28;20262;-78
2023/11/03 09:30:10;;;;;;;2.65;2.55;;;7.10;99.90;;;;;;5001230;28;20992;-78
2023/11/03 09:32:37;;;;;;;2.35;2.25;;;7.10;99.90;;;;;;5001963;28;20236;-78
2023/11/03 09:35:06;;;;;;;2.72;2.63;;;7.10;99.90;;;;;;5004518;28;21015;-78
2023/11/03 09:37:34;;;;;;;2.65;2.45;;;7.10;99.90;;;;;;4999187;28;20210;-77
2023/11/03 09:40:02;;;;;;;2.20;2.10;;;7.10;99.90;;;;;;4998276;28;20824;-81
2023/11/03 09:42:30;;;;;;;2.28;2.17;;;7.10;99.90;;;;;;4999615;28;20214;-79
2023/11/03 09:44:58;;;;;;;2.20;2.10;;;7.10;99.90;;;;;;5002579;28;20291;-83
2023/11/03 09:47:26;;;;;;;2.28;2.17;;;7.10;99.90;;;;;;5001882;28;20208;-82
2023/11/03 09:49:55;;;;;;;2.30;2.20;;;7.20;99.90;;;;;;5001337;28;20243;-80
2023/11/03 09:52:25;;;;;;;2.65;2.45;;;7.20;99.90;;;;;;4986579;28;20212;-82
2023/11/03 09:54:54;;;;;;;3.22;3.03;;;7.20;99.90;;;;;;5000479;28;20220;-82
2023/11/03 09:57:23;;;;;;;3.45;3.25;;;7.20;99.90;;;;;;5000304;28;20248;-78
2023/11/03 09:59:50;;;;;;;3.00;2.80;;;7.20;99.90;;;;;;5002275;28;20192;-80
2023/11/03 10:02:19;;;;;;;3.63;2.67;;;7.30;99.90;;;;;;5002856;28;20205;-76
2023/11/03 10:04:47;;;;;;;2.58;2.40;;;7.40;99.90;;;;;;4999712;28;20220;-80
2023/11/03 10:07:17;;;;;;;2.67;2.58;;;7.40;99.90;;;;;;4999822;28;20204;-79
2023/11/03 10:09:47;;;;;;;2.38;2.28;;;7.50;99.90;;;;;;4997120;28;20271;-80
2023/11/03 10:12:15;;;;;;;2.30;2.20;;;7.50;99.90;;;;;;5001533;28;20206;-84
2023/11/03 10:14:43;;;;;;;2.17;2.08;;;7.50;99.90;;;;;;5004236;28;20219;-83
2023/11/03 10:17:14;;;;;;;2.20;2.10;;;7.50;99.90;;;;;;5001641;28;20219;-80
2023/11/03 10:19:41;;;;;;;2.67;2.50;;;7.50;99.90;;;;;;4999197;28;20192;-84
2023/11/03 10:22:09;;;;;;;2.13;2.00;;;7.50;99.90;;;;;;5000858;28;20250;-79
2023/11/03 10:24:37;;;;;;;1.80;1.70;;;7.60;99.90;;;;;;5002136;28;20227;-81
2023/11/03 10:27:06;;;;;;;1.80;1.70;;;7.60;99.90;;;;;;4996453;28;20207;-76
2023/11/03 10:29:35;;;;;;;2.08;1.98;;;7.70;99.90;;;;;;5001433;28;20247;-80
2023/11/03 10:32:02;;;;;;;2.00;1.90;;;7.80;99.90;;;;;;4995824;28;20286;-79
2023/11/03 10:34:30;;;;;;;3.55;2.97;;;7.80;99.90;;;;;;5001237;28;20245;-80
2023/11/03 10:36:59;;;;;;;3.17;2.92;;;7.80;99.90;;;;;;5002351;28;20791;-80
2023/11/03 10:39:27;;;;;;;3.97;3.58;;;7.80;99.90;;;;;;4996374;28;20280;-77
2023/11/03 10:41:55;;;;;;;3.45;3.15;;;7.70;99.90;;;;;;4997806;28;20208;-78
2023/11/03 10:44:30;;;;;;;3.38;3.13;;;7.80;99.90;;;;;;5001583;28;20331;-80
2023/11/03 10:47:00;;;;;;;2.67;2.50;;;7.80;99.90;;;;;;4999541;28;20294;-77
2023/11/03 10:49:30;;;;;;;2.13;2.03;;;7.80;99.90;;;;;;4998174;28;20217;-78
2023/11/03 10:52:07;;;;;;;2.38;2.28;;;7.80;99.90;;;;;;4998822;28;20215;-77
2023/11/03 10:54:41;;;;;;;2.42;2.33;;;7.70;99.90;;;;;;5001368;28;20219;-80
2023/11/03 10:57:10;;;;;;;2.30;2.20;;;7.70;99.90;;;;;;4997782;28;20200;-78
2023/11/03 10:59:41;;;;;;;1.95;1.85;;;7.60;99.90;;;;;;4999774;28;21515;-81
2023/11/03 11:02:17;;;;;;;2.25;2.15;;;7.60;99.90;;;;;;5001330;28;20212;-77
2023/11/03 11:04:53;;;;;;;2.40;2.30;;;7.60;99.90;;;;;;5000050;28;20880;-78
2023/11/03 11:07:22;;;;;;;2.05;1.95;;;7.50;99.90;;;;;;4996888;28;20207;-78
2023/11/03 11:09:50;;;;;;;2.60;2.50;;;7.60;99.90;;;;;;4993430;28;20228;-75
2023/11/03 11:12:17;;;;;;;2.10;2.00;;;7.60;99.90;;;;;;4995656;28;20200;-76
2023/11/03 11:14:48;;;;;;;2.05;1.95;;;7.60;99.90;;;;;;4992755;28;20294;-76
2023/11/03 11:17:18;;;;;;;2.03;1.92;;;7.50;99.90;;;;;;4983386;28;20216;-75
2023/11/03 11:19:52;;;;;;;1.90;1.80;;;7.60;99.90;;;;;;4995827;28;20201;-77
2023/11/03 11:22:21;;;;;;;1.80;1.70;;;7.70;99.90;;;;;;4996458;28;20252;-77
2023/11/03 11:24:49;;;;;;;1.50;1.50;;;7.80;99.90;;;;;;4994336;28;20224;-80
2023/11/03 11:27:19;;;;;;;3.05;2.85;;;7.90;99.90;;;;;;4999232;28;20204;-77
2023/11/03 11:29:50;;;;;;;9.23;7.32;;;8.00;99.90;;;;;;4997048;28;20212;-76
2023/11/03 11:32:18;;;;;;;5.03;4.53;;;8.10;99.90;;;;;;4997918;28;20205;-79
2023/11/03 11:34:46;;;;;;;6.20;4.70;;;8.20;99.90;;;;;;4999675;28;20215;-82
2023/11/03 11:37:26;;;;;;;6.70;5.78;;;8.30;99.90;;;;;;4998445;28;20208;-77
2023/11/03 11:39:54;;;;;;;9.70;8.38;;;8.50;99.90;;;;;;4999213;28;20279;-80
2023/11/03 11:42:21;;;;;;;7.97;6.65;;;8.50;99.90;;;;;;4998653;28;20602;-78
2023/11/03 11:44:54;;;;;;;6.32;4.43;;;8.60;99.90;;;;;;4996760;28;20224;-78
2023/11/03 11:47:25;;;;;;;4.43;4.03;;;8.60;99.90;;;;;;4996429;28;20193;-78
2023/11/03 11:49:57;;;;;;;3.58;3.28;;;8.70;99.90;;;;;;4993770;28;20225;-77
2023/11/03 11:52:25;;;;;;;2.92;2.72;;;8.80;99.90;;;;;;4997050;28;20219;-78
2023/11/03 11:54:57;;;;;;;2.17;2.08;;;8.80;99.90;;;;;;4992664;28;20879;-76
2023/11/03 11:57:27;;;;;;;2.28;2.17;;;8.80;99.90;;;;;;4993750;28;20299;-76
2023/11/03 11:59:57;;;;;;;2.78;2.58;;;8.90;99.90;;;;;;4994190;28;20262;-76
2023/11/03 12:02:25;;;;;;;2.30;2.10;;;9.00;99.90;;;;;;4994173;28;20208;-77
2023/11/03 12:04:55;;;;;;;2.85;2.65;;;9.00;99.90;;;;;;4992539;28;20232;-79
2023/11/03 12:07:23;;;;;;;2.67;2.50;;;8.90;99.90;;;;;;4993591;28;20259;-77
2023/11/03 12:09:53;;;;;;;1.90;1.80;;;8.90;99.90;;;;;;4996695;28;20239;-79
2023/11/03 12:12:21;;;;;;;3.38;3.08;;;8.80;99.90;;;;;;4993914;28;20292;-78
2023/11/03 12:14:48;;;;;;;2.60;2.42;;;8.90;99.90;;;;;;4997542;28;20667;-82
2023/11/03 12:17:19;;;;;;;2.10;2.00;;;8.90;99.90;;;;;;4997160;28;20299;-77
2023/11/03 12:19:47;;;;;;;1.70;1.55;;;8.90;99.90;;;;;;4992855;28;20206;-78
2023/11/03 12:22:21;;;;;;;2.28;2.17;;;9.00;99.90;;;;;;4994983;28;20952;-75
2023/11/03 12:24:48;;;;;;;2.00;1.90;;;9.00;99.90;;;;;;4996024;28;20760;-75
2023/11/03 12:27:16;;;;;;;1.60;1.58;;;9.10;99.90;;;;;;4996635;28;20297;-77
2023/11/03 12:29:44;;;;;;;1.90;1.80;;;9.10;99.90;;;;;;4996311;28;20224;-75
2023/11/03 12:32:13;;;;;;;2.03;1.92;;;9.20;99.90;;;;;;4995798;28;20204;-76
2023/11/03 12:34:43;;;;;;;1.90;1.80;;;9.20;99.90;;;;;;4997541;28;20248;-75
2023/11/03 12:37:12;;;;;;;2.85;2.17;;;9.30;99.90;;;;;;4996498;28;20303;-75
2023/11/03 12:39:49;;;;;;;3.17;2.92;;;9.20;99.90;;;;;;4997552;28;20205;-78
2023/11/03 12:42:17;;;;;;;2.80;2.60;;;9.10;99.90;;;;;;5001375;28;20879;-79
2023/11/03 12:44:52;;;;;;;2.28;2.17;;;9.00;99.90;;;;;;4999123;28;20231;-78
2023/11/03 12:47:38;;;;;;;2.20;2.10;;;9.00;99.90;;;;;;4999786;28;20219;-75
2023/11/03 12:50:16;;;;;;;2.45;2.28;;;9.00;99.90;;;;;;5015160;28;20230;-77
2023/11/03 12:52:44;;;;;;;2.60;2.33;;;9.00;99.90;;;;;;5005091;28;20290;-75
2023/11/03 12:55:14;;;;;;;1.90;1.80;;;9.00;99.90;;;;;;5002652;28;20236;-77
2023/11/03 12:57:42;;;;;;;1.92;1.83;;;8.90;99.90;;;;;;4986800;28;20196;-74
2023/11/03 13:00:15;;;;;;;2.17;2.00;;;8.90;99.90;;;;;;4998908;28;20205;-74